sensor_id;sensor_type;location;lat;lon;timestamp;P1;durP1;ratioP1;P2;durP2;ratioP2
23001;SDS011;11667;51.706;4.856;2024-01-30T00:01:29;14.23;;;8.00;;
23001;SDS011;11667;51.706;4.856;2024-01-30T00:03:58;12.93;;;7.75;;
23001;SDS011;11667;51.706;4.856;2024-01-30T00:06:27;15.78;;;6.87;;
23001;SDS011;11667;51.706;4.856;2024-01-30T00:08:57;11.20;;;7.10;;
23001;SDS011;11667;51.706;4.856;2024-01-30T00:11:26;17.00;;;8.13;;
23001;SDS011;11667;51.706;4.856;2024-01-30T00:17:01;10.58;;;7.28;;
23001;SDS011;11667;51.706;4.856;2024-01-30T00:19:31;12.43;;;7.12;;
23001;SDS011;11667;51.706;4.856;2024-01-30T00:22:00;14.47;;;7.85;;
23001;SDS011;11667;51.706;4.856;2024-01-30T00:24:29;15.88;;;8.65;;
23001;SDS011;11667;51.706;4.856;2024-01-30T00:26:59;13.20;;;7.87;;
23001;SDS011;11667;51.706;4.856;2024-01-30T00:29:28;9.40;;;6.75;;
23001;SDS011;11667;51.706;4.856;2024-01-30T00:31:59;13.13;;;7.87;;
23001;SDS011;11667;51.706;4.856;2024-01-30T00:34:29;10.13;;;5.97;;
23001;SDS011;11667;51.706;4.856;2024-01-30T00:36:58;11.88;;;7.17;;
23001;SDS011;11667;51.706;4.856;2024-01-30T00:39:28;22.45;;;7.95;;
23001;SDS011;11667;51.706;4.856;2024-01-30T00:41:57;11.35;;;7.25;;
23001;SDS011;11667;51.706;4.856;2024-01-30T00:44:26;11.65;;;7.42;;
23001;SDS011;11667;51.706;4.856;2024-01-30T00:46:56;12.90;;;7.03;;
23001;SDS011;11667;51.706;4.856;2024-01-30T00:49:25;11.10;;;7.15;;
23001;SDS011;11667;51.706;4.856;2024-01-30T00:51:54;10.35;;;7.28;;
23001;SDS011;11667;51.706;4.856;2024-01-30T00:54:24;13.95;;;7.35;;
23001;SDS011;11667;51.706;4.856;2024-01-30T00:56:53;13.15;;;7.37;;
23001;SDS011;11667;51.706;4.856;2024-01-30T00:59:22;12.98;;;6.40;;
23001;SDS011;11667;51.706;4.856;2024-01-30T01:01:52;12.15;;;7.30;;
23001;SDS011;11667;51.706;4.856;2024-01-30T01:04:22;11.97;;;7.53;;
23001;SDS011;11667;51.706;4.856;2024-01-30T01:06:51;10.08;;;6.22;;
23001;SDS011;11667;51.706;4.856;2024-01-30T01:09:20;10.70;;;6.55;;
23001;SDS011;11667;51.706;4.856;2024-01-30T01:11:50;10.28;;;6.87;;
23001;SDS011;11667;51.706;4.856;2024-01-30T01:14:19;12.40;;;7.17;;
23001;SDS011;11667;51.706;4.856;2024-01-30T01:16:48;11.43;;;6.80;;
23001;SDS011;11667;51.706;4.856;2024-01-30T01:19:18;12.35;;;7.37;;
23001;SDS011;11667;51.706;4.856;2024-01-30T01:21:47;14.23;;;6.97;;
23001;SDS011;11667;51.706;4.856;2024-01-30T01:24:16;12.23;;;7.20;;
23001;SDS011;11667;51.706;4.856;2024-01-30T01:26:46;11.90;;;6.85;;
23001;SDS011;11667;51.706;4.856;2024-01-30T01:29:15;11.18;;;6.47;;
23001;SDS011;11667;51.706;4.856;2024-01-30T01:31:45;12.37;;;7.25;;
23001;SDS011;11667;51.706;4.856;2024-01-30T01:34:14;12.13;;;5.80;;
23001;SDS011;11667;51.706;4.856;2024-01-30T01:36:43;13.32;;;7.65;;
23001;SDS011;11667;51.706;4.856;2024-01-30T01:39:13;10.48;;;6.95;;
23001;SDS011;11667;51.706;4.856;2024-01-30T01:41:42;9.88;;;6.62;;
23001;SDS011;11667;51.706;4.856;2024-01-30T01:44:11;8.65;;;6.10;;
23001;SDS011;11667;51.706;4.856;2024-01-30T01:46:41;13.83;;;6.92;;
23001;SDS011;11667;51.706;4.856;2024-01-30T01:49:11;13.03;;;6.28;;
23001;SDS011;11667;51.706;4.856;2024-01-30T01:51:40;11.73;;;7.00;;
23001;SDS011;11667;51.706;4.856;2024-01-30T01:54:12;12.20;;;6.08;;
23001;SDS011;11667;51.706;4.856;2024-01-30T01:56:43;12.37;;;6.62;;
23001;SDS011;11667;51.706;4.856;2024-01-30T01:59:12;9.78;;;5.92;;
23001;SDS011;11667;51.706;4.856;2024-01-30T02:01:41;9.90;;;6.65;;
23001;SDS011;11667;51.706;4.856;2024-01-30T02:04:13;10.13;;;6.30;;
23001;SDS011;11667;51.706;4.856;2024-01-30T02:06:43;11.03;;;5.62;;
23001;SDS011;11667;51.706;4.856;2024-01-30T02:09:12;9.03;;;6.03;;
23001;SDS011;11667;51.706;4.856;2024-01-30T02:11:42;10.50;;;5.72;;
23001;SDS011;11667;51.706;4.856;2024-01-30T02:14:11;10.93;;;6.35;;
23001;SDS011;11667;51.706;4.856;2024-01-30T02:16:40;12.60;;;6.03;;
23001;SDS011;11667;51.706;4.856;2024-01-30T02:19:10;10.78;;;6.58;;
23001;SDS011;11667;51.706;4.856;2024-01-30T02:21:39;11.10;;;6.15;;
23001;SDS011;11667;51.706;4.856;2024-01-30T02:24:09;11.70;;;5.78;;
23001;SDS011;11667;51.706;4.856;2024-01-30T02:26:38;10.05;;;5.42;;
23001;SDS011;11667;51.706;4.856;2024-01-30T02:29:07;8.95;;;6.20;;
23001;SDS011;11667;51.706;4.856;2024-01-30T02:31:37;12.50;;;6.75;;
23001;SDS011;11667;51.706;4.856;2024-01-30T02:34:06;9.90;;;6.62;;
23001;SDS011;11667;51.706;4.856;2024-01-30T02:36:35;12.63;;;6.92;;
23001;SDS011;11667;51.706;4.856;2024-01-30T02:39:05;13.75;;;6.87;;
23001;SDS011;11667;51.706;4.856;2024-01-30T02:41:34;9.65;;;6.28;;
23001;SDS011;11667;51.706;4.856;2024-01-30T02:44:04;11.78;;;5.83;;
23001;SDS011;11667;51.706;4.856;2024-01-30T02:46:33;12.20;;;6.58;;
23001;SDS011;11667;51.706;4.856;2024-01-30T02:49:02;8.75;;;5.58;;
23001;SDS011;11667;51.706;4.856;2024-01-30T02:51:32;11.15;;;6.95;;
23001;SDS011;11667;51.706;4.856;2024-01-30T02:54:01;8.18;;;5.70;;
23001;SDS011;11667;51.706;4.856;2024-01-30T02:56:30;10.93;;;6.47;;
23001;SDS011;11667;51.706;4.856;2024-01-30T02:58:59;14.60;;;7.08;;
23001;SDS011;11667;51.706;4.856;2024-01-30T03:01:29;9.15;;;5.83;;
23001;SDS011;11667;51.706;4.856;2024-01-30T03:03:59;9.60;;;5.90;;
23001;SDS011;11667;51.706;4.856;2024-01-30T03:06:29;13.72;;;6.85;;
23001;SDS011;11667;51.706;4.856;2024-01-30T03:08:58;11.40;;;7.10;;
23001;SDS011;11667;51.706;4.856;2024-01-30T03:11:28;10.05;;;5.87;;
23001;SDS011;11667;51.706;4.856;2024-01-30T03:13:57;11.50;;;6.55;;
23001;SDS011;11667;51.706;4.856;2024-01-30T03:16:26;12.37;;;6.35;;
23001;SDS011;11667;51.706;4.856;2024-01-30T03:18:56;10.50;;;5.72;;
23001;SDS011;11667;51.706;4.856;2024-01-30T03:21:25;11.83;;;6.53;;
23001;SDS011;11667;51.706;4.856;2024-01-30T03:23:54;11.78;;;5.55;;
23001;SDS011;11667;51.706;4.856;2024-01-30T03:26:24;15.58;;;6.62;;
23001;SDS011;11667;51.706;4.856;2024-01-30T03:28:53;12.13;;;6.33;;
23001;SDS011;11667;51.706;4.856;2024-01-30T03:31:22;10.58;;;5.75;;
23001;SDS011;11667;51.706;4.856;2024-01-30T03:33:52;12.58;;;6.72;;
23001;SDS011;11667;51.706;4.856;2024-01-30T03:36:22;11.15;;;5.47;;
23001;SDS011;11667;51.706;4.856;2024-01-30T03:38:51;13.45;;;6.12;;
23001;SDS011;11667;51.706;4.856;2024-01-30T03:41:20;10.00;;;6.05;;
23001;SDS011;11667;51.706;4.856;2024-01-30T03:43:50;11.53;;;6.78;;
23001;SDS011;11667;51.706;4.856;2024-01-30T03:46:19;15.18;;;6.10;;
23001;SDS011;11667;51.706;4.856;2024-01-30T03:48:48;9.60;;;6.10;;
23001;SDS011;11667;51.706;4.856;2024-01-30T03:51:18;10.28;;;5.87;;
23001;SDS011;11667;51.706;4.856;2024-01-30T03:53:47;10.63;;;5.95;;
23001;SDS011;11667;51.706;4.856;2024-01-30T03:56:16;11.00;;;6.00;;
23001;SDS011;11667;51.706;4.856;2024-01-30T03:58:46;8.88;;;5.37;;
23001;SDS011;11667;51.706;4.856;2024-01-30T04:01:15;11.33;;;6.50;;
23001;SDS011;11667;51.706;4.856;2024-01-30T04:03:44;9.50;;;5.90;;
23001;SDS011;11667;51.706;4.856;2024-01-30T04:06:14;10.30;;;5.83;;
23001;SDS011;11667;51.706;4.856;2024-01-30T04:08:43;11.63;;;6.22;;
23001;SDS011;11667;51.706;4.856;2024-01-30T04:11:13;9.80;;;5.50;;
23001;SDS011;11667;51.706;4.856;2024-01-30T04:13:42;14.10;;;5.78;;
23001;SDS011;11667;51.706;4.856;2024-01-30T04:16:19;11.57;;;6.28;;
23001;SDS011;11667;51.706;4.856;2024-01-30T04:18:51;10.08;;;6.17;;
23001;SDS011;11667;51.706;4.856;2024-01-30T04:21:20;12.10;;;7.17;;
23001;SDS011;11667;51.706;4.856;2024-01-30T04:23:53;10.63;;;5.85;;
23001;SDS011;11667;51.706;4.856;2024-01-30T04:26:22;10.40;;;5.92;;
23001;SDS011;11667;51.706;4.856;2024-01-30T04:28:51;9.43;;;5.33;;
23001;SDS011;11667;51.706;4.856;2024-01-30T04:31:21;12.95;;;6.58;;
23001;SDS011;11667;51.706;4.856;2024-01-30T04:33:50;12.13;;;6.25;;
23001;SDS011;11667;51.706;4.856;2024-01-30T04:36:20;12.30;;;6.12;;
23001;SDS011;11667;51.706;4.856;2024-01-30T04:38:49;10.08;;;5.75;;
23001;SDS011;11667;51.706;4.856;2024-01-30T04:41:18;11.45;;;6.50;;
23001;SDS011;11667;51.706;4.856;2024-01-30T04:43:48;12.33;;;6.37;;
23001;SDS011;11667;51.706;4.856;2024-01-30T04:46:17;13.70;;;7.12;;
23001;SDS011;11667;51.706;4.856;2024-01-30T04:48:46;9.45;;;5.55;;
23001;SDS011;11667;51.706;4.856;2024-01-30T04:51:16;9.00;;;5.37;;
23001;SDS011;11667;51.706;4.856;2024-01-30T04:53:45;11.00;;;5.55;;
23001;SDS011;11667;51.706;4.856;2024-01-30T04:56:14;12.07;;;6.08;;
23001;SDS011;11667;51.706;4.856;2024-01-30T04:58:44;8.95;;;5.62;;
23001;SDS011;11667;51.706;4.856;2024-01-30T05:01:16;8.18;;;4.85;;
23001;SDS011;11667;51.706;4.856;2024-01-30T05:03:46;10.58;;;6.00;;
23001;SDS011;11667;51.706;4.856;2024-01-30T05:06:25;11.78;;;6.10;;
23001;SDS011;11667;51.706;4.856;2024-01-30T05:08:55;7.95;;;5.33;;
23001;SDS011;11667;51.706;4.856;2024-01-30T05:11:24;8.45;;;5.30;;
23001;SDS011;11667;51.706;4.856;2024-01-30T05:13:54;11.08;;;6.62;;
23001;SDS011;11667;51.706;4.856;2024-01-30T05:16:23;10.00;;;5.72;;
23001;SDS011;11667;51.706;4.856;2024-01-30T05:18:52;8.48;;;6.05;;
23001;SDS011;11667;51.706;4.856;2024-01-30T05:21:22;12.30;;;6.83;;
23001;SDS011;11667;51.706;4.856;2024-01-30T05:23:51;10.20;;;6.00;;
23001;SDS011;11667;51.706;4.856;2024-01-30T05:26:21;10.65;;;5.15;;
23001;SDS011;11667;51.706;4.856;2024-01-30T05:28:50;12.33;;;5.95;;
23001;SDS011;11667;51.706;4.856;2024-01-30T05:31:20;13.78;;;7.30;;
23001;SDS011;11667;51.706;4.856;2024-01-30T05:33:49;11.55;;;6.60;;
23001;SDS011;11667;51.706;4.856;2024-01-30T05:36:19;10.35;;;6.58;;
23001;SDS011;11667;51.706;4.856;2024-01-30T05:38:49;10.75;;;5.95;;
23001;SDS011;11667;51.706;4.856;2024-01-30T05:41:19;12.15;;;6.87;;
23001;SDS011;11667;51.706;4.856;2024-01-30T05:43:49;9.75;;;5.75;;
23001;SDS011;11667;51.706;4.856;2024-01-30T05:46:20;11.38;;;6.85;;
23001;SDS011;11667;51.706;4.856;2024-01-30T05:48:51;11.97;;;6.35;;
23001;SDS011;11667;51.706;4.856;2024-01-30T05:51:21;11.03;;;6.47;;
23001;SDS011;11667;51.706;4.856;2024-01-30T05:53:50;11.00;;;6.15;;
23001;SDS011;11667;51.706;4.856;2024-01-30T05:56:19;9.15;;;5.75;;
23001;SDS011;11667;51.706;4.856;2024-01-30T05:58:49;10.90;;;6.35;;
23001;SDS011;11667;51.706;4.856;2024-01-30T06:01:18;11.65;;;6.60;;
23001;SDS011;11667;51.706;4.856;2024-01-30T06:03:48;11.70;;;6.50;;
23001;SDS011;11667;51.706;4.856;2024-01-30T06:06:17;13.72;;;5.90;;
23001;SDS011;11667;51.706;4.856;2024-01-30T06:08:46;9.20;;;6.03;;
23001;SDS011;11667;51.706;4.856;2024-01-30T06:11:16;8.58;;;5.97;;
23001;SDS011;11667;51.706;4.856;2024-01-30T06:13:45;13.62;;;5.67;;
23001;SDS011;11667;51.706;4.856;2024-01-30T06:16:14;9.58;;;5.42;;
23001;SDS011;11667;51.706;4.856;2024-01-30T06:18:45;11.30;;;5.67;;
23001;SDS011;11667;51.706;4.856;2024-01-30T06:21:15;10.63;;;6.12;;
23001;SDS011;11667;51.706;4.856;2024-01-30T06:23:44;12.37;;;5.87;;
23001;SDS011;11667;51.706;4.856;2024-01-30T06:26:14;12.30;;;5.95;;
23001;SDS011;11667;51.706;4.856;2024-01-30T06:28:43;10.18;;;6.05;;
23001;SDS011;11667;51.706;4.856;2024-01-30T06:31:12;15.60;;;6.25;;
23001;SDS011;11667;51.706;4.856;2024-01-30T06:33:42;13.20;;;6.42;;
23001;SDS011;11667;51.706;4.856;2024-01-30T06:36:11;11.18;;;5.83;;
23001;SDS011;11667;51.706;4.856;2024-01-30T06:38:40;8.38;;;5.53;;
23001;SDS011;11667;51.706;4.856;2024-01-30T06:41:10;8.48;;;5.03;;
23001;SDS011;11667;51.706;4.856;2024-01-30T06:43:39;8.90;;;5.55;;
23001;SDS011;11667;51.706;4.856;2024-01-30T06:46:08;10.15;;;6.00;;
23001;SDS011;11667;51.706;4.856;2024-01-30T06:48:38;9.20;;;5.08;;
23001;SDS011;11667;51.706;4.856;2024-01-30T06:51:08;11.33;;;5.87;;
23001;SDS011;11667;51.706;4.856;2024-01-30T06:53:38;11.15;;;5.60;;
23001;SDS011;11667;51.706;4.856;2024-01-30T06:56:08;10.32;;;5.20;;
23001;SDS011;11667;51.706;4.856;2024-01-30T06:58:37;11.35;;;5.42;;
23001;SDS011;11667;51.706;4.856;2024-01-30T07:01:06;11.43;;;6.33;;
23001;SDS011;11667;51.706;4.856;2024-01-30T07:03:37;9.35;;;5.17;;
23001;SDS011;11667;51.706;4.856;2024-01-30T07:06:07;11.33;;;6.15;;
23001;SDS011;11667;51.706;4.856;2024-01-30T07:08:36;9.53;;;6.22;;
23001;SDS011;11667;51.706;4.856;2024-01-30T07:11:09;9.73;;;5.37;;
23001;SDS011;11667;51.706;4.856;2024-01-30T07:13:39;13.20;;;6.25;;
23001;SDS011;11667;51.706;4.856;2024-01-30T07:16:09;12.37;;;5.92;;
23001;SDS011;11667;51.706;4.856;2024-01-30T07:18:38;9.63;;;5.22;;
23001;SDS011;11667;51.706;4.856;2024-01-30T07:21:08;9.50;;;5.70;;
23001;SDS011;11667;51.706;4.856;2024-01-30T07:23:37;9.78;;;5.60;;
23001;SDS011;11667;51.706;4.856;2024-01-30T07:26:07;8.43;;;5.25;;
23001;SDS011;11667;51.706;4.856;2024-01-30T07:28:37;8.60;;;5.53;;
23001;SDS011;11667;51.706;4.856;2024-01-30T07:31:06;9.80;;;5.17;;
23001;SDS011;11667;51.706;4.856;2024-01-30T07:33:35;10.82;;;5.97;;
23001;SDS011;11667;51.706;4.856;2024-01-30T07:36:05;8.10;;;5.70;;
23001;SDS011;11667;51.706;4.856;2024-01-30T07:38:34;10.48;;;5.62;;
23001;SDS011;11667;51.706;4.856;2024-01-30T07:41:04;12.82;;;5.47;;
23001;SDS011;11667;51.706;4.856;2024-01-30T07:43:33;10.13;;;5.40;;
23001;SDS011;11667;51.706;4.856;2024-01-30T07:46:03;10.78;;;5.28;;
23001;SDS011;11667;51.706;4.856;2024-01-30T07:48:33;10.20;;;5.70;;
23001;SDS011;11667;51.706;4.856;2024-01-30T07:51:03;12.13;;;5.72;;
23001;SDS011;11667;51.706;4.856;2024-01-30T07:53:32;10.18;;;5.80;;
23001;SDS011;11667;51.706;4.856;2024-01-30T07:56:02;9.83;;;5.53;;
23001;SDS011;11667;51.706;4.856;2024-01-30T07:58:31;11.53;;;5.83;;
23001;SDS011;11667;51.706;4.856;2024-01-30T08:01:01;10.80;;;5.58;;
23001;SDS011;11667;51.706;4.856;2024-01-30T08:03:30;9.70;;;5.67;;
23001;SDS011;11667;51.706;4.856;2024-01-30T08:06:00;9.78;;;5.40;;
23001;SDS011;11667;51.706;4.856;2024-01-30T08:08:29;10.23;;;6.60;;
23001;SDS011;11667;51.706;4.856;2024-01-30T08:10:58;8.58;;;5.62;;
23001;SDS011;11667;51.706;4.856;2024-01-30T08:13:28;13.00;;;5.78;;
23001;SDS011;11667;51.706;4.856;2024-01-30T08:15:57;11.10;;;5.65;;
23001;SDS011;11667;51.706;4.856;2024-01-30T08:18:26;8.88;;;5.80;;
23001;SDS011;11667;51.706;4.856;2024-01-30T08:20:56;9.78;;;5.42;;
23001;SDS011;11667;51.706;4.856;2024-01-30T08:23:25;9.33;;;5.22;;
23001;SDS011;11667;51.706;4.856;2024-01-30T08:25:54;11.12;;;5.60;;
23001;SDS011;11667;51.706;4.856;2024-01-30T08:28:24;14.47;;;5.35;;
23001;SDS011;11667;51.706;4.856;2024-01-30T08:30:54;9.58;;;5.47;;
23001;SDS011;11667;51.706;4.856;2024-01-30T08:33:23;12.73;;;5.33;;
23001;SDS011;11667;51.706;4.856;2024-01-30T08:35:54;9.25;;;5.53;;
23001;SDS011;11667;51.706;4.856;2024-01-30T08:38:23;10.00;;;5.45;;
23001;SDS011;11667;51.706;4.856;2024-01-30T08:40:54;12.88;;;5.87;;
23001;SDS011;11667;51.706;4.856;2024-01-30T08:43:23;8.35;;;5.22;;
23001;SDS011;11667;51.706;4.856;2024-01-30T08:45:53;12.70;;;5.62;;
23001;SDS011;11667;51.706;4.856;2024-01-30T08:48:22;12.47;;;5.75;;
23001;SDS011;11667;51.706;4.856;2024-01-30T08:50:52;11.43;;;5.58;;
23001;SDS011;11667;51.706;4.856;2024-01-30T08:53:22;11.03;;;4.95;;
23001;SDS011;11667;51.706;4.856;2024-01-30T08:55:52;10.82;;;6.22;;
23001;SDS011;11667;51.706;4.856;2024-01-30T08:58:21;11.25;;;5.67;;
23001;SDS011;11667;51.706;4.856;2024-01-30T09:00:51;10.55;;;5.78;;
23001;SDS011;11667;51.706;4.856;2024-01-30T09:03:20;8.78;;;5.80;;
23001;SDS011;11667;51.706;4.856;2024-01-30T09:05:50;12.35;;;6.53;;
23001;SDS011;11667;51.706;4.856;2024-01-30T09:08:19;14.63;;;6.80;;
23001;SDS011;11667;51.706;4.856;2024-01-30T09:10:49;9.75;;;6.30;;
23001;SDS011;11667;51.706;4.856;2024-01-30T09:13:18;10.82;;;5.95;;
23001;SDS011;11667;51.706;4.856;2024-01-30T09:15:47;10.65;;;5.37;;
23001;SDS011;11667;51.706;4.856;2024-01-30T09:18:17;12.93;;;6.00;;
23001;SDS011;11667;51.706;4.856;2024-01-30T09:20:47;9.93;;;5.40;;
23001;SDS011;11667;51.706;4.856;2024-01-30T09:23:16;11.97;;;5.80;;
23001;SDS011;11667;51.706;4.856;2024-01-30T09:25:47;13.20;;;5.78;;
23001;SDS011;11667;51.706;4.856;2024-01-30T09:28:19;8.23;;;5.42;;
23001;SDS011;11667;51.706;4.856;2024-01-30T09:30:50;11.00;;;6.20;;
23001;SDS011;11667;51.706;4.856;2024-01-30T09:33:19;9.75;;;6.17;;
23001;SDS011;11667;51.706;4.856;2024-01-30T09:35:49;10.68;;;5.47;;
23001;SDS011;11667;51.706;4.856;2024-01-30T09:38:18;12.50;;;6.08;;
23001;SDS011;11667;51.706;4.856;2024-01-30T09:40:53;11.73;;;6.15;;
23001;SDS011;11667;51.706;4.856;2024-01-30T09:43:21;10.70;;;5.87;;
23001;SDS011;11667;51.706;4.856;2024-01-30T09:45:53;14.30;;;6.37;;
23001;SDS011;11667;51.706;4.856;2024-01-30T09:48:23;10.95;;;6.40;;
23001;SDS011;11667;51.706;4.856;2024-01-30T09:50:53;7.58;;;5.10;;
23001;SDS011;11667;51.706;4.856;2024-01-30T09:53:22;11.53;;;5.22;;
23001;SDS011;11667;51.706;4.856;2024-01-30T09:55:52;8.90;;;5.10;;
23001;SDS011;11667;51.706;4.856;2024-01-30T09:58:21;8.10;;;5.05;;
23001;SDS011;11667;51.706;4.856;2024-01-30T10:00:50;9.65;;;4.70;;
23001;SDS011;11667;51.706;4.856;2024-01-30T10:03:23;11.70;;;5.37;;
23001;SDS011;11667;51.706;4.856;2024-01-30T10:05:53;8.95;;;5.15;;
23001;SDS011;11667;51.706;4.856;2024-01-30T10:08:24;9.00;;;5.37;;
23001;SDS011;11667;51.706;4.856;2024-01-30T10:10:56;7.80;;;5.08;;
23001;SDS011;11667;51.706;4.856;2024-01-30T10:13:26;8.00;;;5.12;;
23001;SDS011;11667;51.706;4.856;2024-01-30T10:15:56;11.68;;;4.80;;
23001;SDS011;11667;51.706;4.856;2024-01-30T10:18:25;7.83;;;4.00;;
23001;SDS011;11667;51.706;4.856;2024-01-30T10:20:55;8.95;;;5.83;;
23001;SDS011;11667;51.706;4.856;2024-01-30T10:23:24;6.15;;;4.67;;
23001;SDS011;11667;51.706;4.856;2024-01-30T10:25:55;9.93;;;4.72;;
23001;SDS011;11667;51.706;4.856;2024-01-30T10:28:27;8.03;;;4.33;;
23001;SDS011;11667;51.706;4.856;2024-01-30T10:30:58;14.25;;;5.70;;
23001;SDS011;11667;51.706;4.856;2024-01-30T10:33:29;10.20;;;5.97;;
23001;SDS011;11667;51.706;4.856;2024-01-30T10:36:03;8.18;;;5.70;;
23001;SDS011;11667;51.706;4.856;2024-01-30T10:38:33;10.45;;;5.90;;
23001;SDS011;11667;51.706;4.856;2024-01-30T10:41:03;11.12;;;5.45;;
23001;SDS011;11667;51.706;4.856;2024-01-30T10:43:33;9.20;;;5.45;;
23001;SDS011;11667;51.706;4.856;2024-01-30T10:46:10;9.33;;;5.65;;
23001;SDS011;11667;51.706;4.856;2024-01-30T10:48:46;10.00;;;5.12;;
23001;SDS011;11667;51.706;4.856;2024-01-30T10:53:43;12.43;;;5.55;;
23001;SDS011;11667;51.706;4.856;2024-01-30T10:56:14;7.87;;;4.45;;
23001;SDS011;11667;51.706;4.856;2024-01-30T10:58:45;9.13;;;4.40;;
23001;SDS011;11667;51.706;4.856;2024-01-30T11:01:15;11.28;;;5.25;;
23001;SDS011;11667;51.706;4.856;2024-01-30T11:03:45;7.97;;;4.30;;
23001;SDS011;11667;51.706;4.856;2024-01-30T11:06:14;9.98;;;4.45;;
23001;SDS011;11667;51.706;4.856;2024-01-30T11:08:46;10.60;;;4.87;;
23001;SDS011;11667;51.706;4.856;2024-01-30T11:11:16;8.23;;;4.87;;
23001;SDS011;11667;51.706;4.856;2024-01-30T11:13:46;8.90;;;4.90;;
23001;SDS011;11667;51.706;4.856;2024-01-30T11:16:17;11.10;;;4.55;;
23001;SDS011;11667;51.706;4.856;2024-01-30T11:18:50;6.62;;;3.90;;
23001;SDS011;11667;51.706;4.856;2024-01-30T11:21:20;5.50;;;2.92;;
23001;SDS011;11667;51.706;4.856;2024-01-30T11:23:49;8.93;;;2.98;;
23001;SDS011;11667;51.706;4.856;2024-01-30T11:26:18;3.42;;;2.50;;
23001;SDS011;11667;51.706;4.856;2024-01-30T11:28:54;6.62;;;2.25;;
23001;SDS011;11667;51.706;4.856;2024-01-30T11:31:24;5.00;;;2.12;;
23001;SDS011;11667;51.706;4.856;2024-01-30T11:33:55;2.72;;;1.80;;
23001;SDS011;11667;51.706;4.856;2024-01-30T11:36:26;3.83;;;1.70;;
23001;SDS011;11667;51.706;4.856;2024-01-30T11:38:55;4.70;;;2.25;;
23001;SDS011;11667;51.706;4.856;2024-01-30T11:41:25;4.75;;;2.50;;
23001;SDS011;11667;51.706;4.856;2024-01-30T11:43:54;3.70;;;1.95;;
23001;SDS011;11667;51.706;4.856;2024-01-30T11:46:24;5.30;;;1.87;;
23001;SDS011;11667;51.706;4.856;2024-01-30T11:48:54;3.70;;;1.40;;
23001;SDS011;11667;51.706;4.856;2024-01-30T11:51:24;4.17;;;1.60;;
23001;SDS011;11667;51.706;4.856;2024-01-30T11:53:53;2.65;;;1.22;;
23001;SDS011;11667;51.706;4.856;2024-01-30T11:56:23;2.00;;;1.37;;
23001;SDS011;11667;51.706;4.856;2024-01-30T11:58:54;0.95;;;0.75;;
23001;SDS011;11667;51.706;4.856;2024-01-30T12:01:23;6.08;;;2.17;;
23001;SDS011;11667;51.706;4.856;2024-01-30T12:03:55;1.85;;;1.25;;
23001;SDS011;11667;51.706;4.856;2024-01-30T12:06:24;3.58;;;1.30;;
23001;SDS011;11667;51.706;4.856;2024-01-30T12:09:00;1.82;;;0.88;;
23001;SDS011;11667;51.706;4.856;2024-01-30T12:11:45;2.37;;;1.50;;
23001;SDS011;11667;51.706;4.856;2024-01-30T12:14:14;4.40;;;1.40;;
23001;SDS011;11667;51.706;4.856;2024-01-30T12:16:47;6.28;;;1.35;;
23001;SDS011;11667;51.706;4.856;2024-01-30T12:19:24;2.25;;;1.10;;
23001;SDS011;11667;51.706;4.856;2024-01-30T12:22:00;7.62;;;1.40;;
23001;SDS011;11667;51.706;4.856;2024-01-30T12:24:28;2.50;;;1.22;;
23001;SDS011;11667;51.706;4.856;2024-01-30T12:26:59;5.75;;;1.40;;
23001;SDS011;11667;51.706;4.856;2024-01-30T12:29:31;6.35;;;1.72;;
23001;SDS011;11667;51.706;4.856;2024-01-30T12:32:04;1.35;;;1.07;;
23001;SDS011;11667;51.706;4.856;2024-01-30T12:34:33;3.42;;;1.40;;
23001;SDS011;11667;51.706;4.856;2024-01-30T12:37:04;3.95;;;2.22;;
23001;SDS011;11667;51.706;4.856;2024-01-30T12:39:34;5.47;;;2.65;;
23001;SDS011;11667;51.706;4.856;2024-01-30T12:42:04;3.17;;;2.22;;
23001;SDS011;11667;51.706;4.856;2024-01-30T12:44:33;5.45;;;2.65;;
23001;SDS011;11667;51.706;4.856;2024-01-30T12:47:03;10.32;;;2.83;;
23001;SDS011;11667;51.706;4.856;2024-01-30T12:49:32;3.55;;;2.27;;
23001;SDS011;11667;51.706;4.856;2024-01-30T12:52:02;4.85;;;2.40;;
23001;SDS011;11667;51.706;4.856;2024-01-30T12:54:34;5.75;;;3.08;;
23001;SDS011;11667;51.706;4.856;2024-01-30T12:57:02;3.42;;;2.10;;
23001;SDS011;11667;51.706;4.856;2024-01-30T12:59:32;6.20;;;2.37;;
23001;SDS011;11667;51.706;4.856;2024-01-30T13:02:02;5.47;;;2.15;;
23001;SDS011;11667;51.706;4.856;2024-01-30T13:04:31;7.00;;;2.40;;
23001;SDS011;11667;51.706;4.856;2024-01-30T13:07:01;4.22;;;2.20;;
23001;SDS011;11667;51.706;4.856;2024-01-30T13:09:31;4.45;;;2.55;;
23001;SDS011;11667;51.706;4.856;2024-01-30T13:12:00;7.87;;;3.33;;
23001;SDS011;11667;51.706;4.856;2024-01-30T13:14:29;4.83;;;1.92;;
23001;SDS011;11667;51.706;4.856;2024-01-30T13:16:59;4.83;;;2.20;;
23001;SDS011;11667;51.706;4.856;2024-01-30T13:19:28;3.67;;;2.60;;
23001;SDS011;11667;51.706;4.856;2024-01-30T13:21:58;6.70;;;2.10;;
23001;SDS011;11667;51.706;4.856;2024-01-30T13:24:27;4.50;;;2.20;;
23001;SDS011;11667;51.706;4.856;2024-01-30T13:26:57;6.70;;;3.02;;
23001;SDS011;11667;51.706;4.856;2024-01-30T13:29:26;3.50;;;2.35;;
23001;SDS011;11667;51.706;4.856;2024-01-30T13:31:55;5.65;;;2.70;;
23001;SDS011;11667;51.706;4.856;2024-01-30T13:34:25;7.12;;;2.60;;
23001;SDS011;11667;51.706;4.856;2024-01-30T13:36:54;4.12;;;2.17;;
23001;SDS011;11667;51.706;4.856;2024-01-30T13:39:24;7.03;;;2.45;;
23001;SDS011;11667;51.706;4.856;2024-01-30T13:41:55;4.22;;;2.85;;
23001;SDS011;11667;51.706;4.856;2024-01-30T13:44:25;5.50;;;2.15;;
23001;SDS011;11667;51.706;4.856;2024-01-30T13:46:54;3.55;;;1.77;;
23001;SDS011;11667;51.706;4.856;2024-01-30T13:49:24;5.92;;;2.05;;
23001;SDS011;11667;51.706;4.856;2024-01-30T13:51:53;6.90;;;1.90;;
23001;SDS011;11667;51.706;4.856;2024-01-30T13:54:24;3.50;;;1.57;;
23001;SDS011;11667;51.706;4.856;2024-01-30T13:56:54;4.35;;;1.52;;
23001;SDS011;11667;51.706;4.856;2024-01-30T13:59:23;3.37;;;1.50;;
23001;SDS011;11667;51.706;4.856;2024-01-30T14:01:53;4.62;;;1.80;;
23001;SDS011;11667;51.706;4.856;2024-01-30T14:04:23;2.08;;;1.30;;
23001;SDS011;11667;51.706;4.856;2024-01-30T14:06:52;4.75;;;1.90;;
23001;SDS011;11667;51.706;4.856;2024-01-30T14:09:23;5.60;;;2.20;;
23001;SDS011;11667;51.706;4.856;2024-01-30T14:11:52;4.85;;;1.45;;
23001;SDS011;11667;51.706;4.856;2024-01-30T14:14:22;3.85;;;1.82;;
23001;SDS011;11667;51.706;4.856;2024-01-30T14:16:51;3.80;;;2.30;;
23001;SDS011;11667;51.706;4.856;2024-01-30T14:19:21;3.55;;;1.98;;
23001;SDS011;11667;51.706;4.856;2024-01-30T14:21:50;3.75;;;2.30;;
23001;SDS011;11667;51.706;4.856;2024-01-30T14:24:19;4.08;;;1.82;;
23001;SDS011;11667;51.706;4.856;2024-01-30T14:26:49;4.33;;;2.25;;
23001;SDS011;11667;51.706;4.856;2024-01-30T14:29:19;3.10;;;2.52;;
23001;SDS011;11667;51.706;4.856;2024-01-30T14:31:48;2.98;;;2.10;;
23001;SDS011;11667;51.706;4.856;2024-01-30T14:34:17;5.75;;;2.20;;
23001;SDS011;11667;51.706;4.856;2024-01-30T14:36:47;5.05;;;2.47;;
23001;SDS011;11667;51.706;4.856;2024-01-30T14:39:16;7.72;;;2.92;;
23001;SDS011;11667;51.706;4.856;2024-01-30T14:41:46;4.53;;;2.72;;
23001;SDS011;11667;51.706;4.856;2024-01-30T14:44:15;5.85;;;3.02;;
23001;SDS011;11667;51.706;4.856;2024-01-30T14:46:44;2.95;;;2.08;;
23001;SDS011;11667;51.706;4.856;2024-01-30T14:49:14;5.00;;;2.85;;
23001;SDS011;11667;51.706;4.856;2024-01-30T14:51:43;7.58;;;4.03;;
23001;SDS011;11667;51.706;4.856;2024-01-30T14:54:13;4.42;;;3.12;;
23001;SDS011;11667;51.706;4.856;2024-01-30T14:56:42;5.15;;;3.37;;
23001;SDS011;11667;51.706;4.856;2024-01-30T14:59:11;7.08;;;3.02;;
23001;SDS011;11667;51.706;4.856;2024-01-30T15:01:41;3.95;;;3.52;;